Time;durP1;ratioP1;P1;durP2;ratioP2;P2;SDS_P1;SDS_P2;PMS_P1;PMS_P2;Temp;Humidity;BMP_temperature;BMP_pressure;BME280_temperature;BME280_humidity;BME280_pressure;Samples;Min_cycle;Max_cycle;Signal;HPM_P1;HPM_P2
2021/12/26 00:01:24;;;;;;;17.65;8.38;;;;;;;6.28;100.00;99126.06;4991214;28;20857;-66
2021/12/26 00:03:50;;;;;;;14.32;7.93;;;;;;;6.30;100.00;99135.69;4994168;28;20117;-67
2021/12/26 00:06:20;;;;;;;14.75;6.90;;;;;;;6.23;100.00;99135.88;5005547;28;20177;-67
2021/12/26 00:08:47;;;;;;;17.27;8.52;;;;;;;6.13;100.00;99130.03;5011058;28;20037;-67
2021/12/26 00:11:13;;;;;;;16.23;8.10;;;;;;;6.24;100.00;99127.09;5011900;28;20034;-67
2021/12/26 00:13:39;;;;;;;17.95;8.30;;;;;;;6.21;100.00;99122.75;4994510;28;20044;-67
2021/12/26 00:16:06;;;;;;;17.45;9.65;;;;;;;6.26;100.00;99120.81;4992161;28;20042;-67
2021/12/26 00:18:32;;;;;;;18.77;9.23;;;;;;;6.37;100.00;99125.81;4991686;28;20042;-67
2021/12/26 00:20:58;;;;;;;16.67;7.65;;;;;;;6.29;100.00;99122.53;4992951;28;20035;-67
2021/12/26 00:23:24;;;;;;;18.40;7.88;;;;;;;6.21;100.00;99128.00;4994780;28;20092;-67
2021/12/26 00:25:50;;;;;;;18.45;8.43;;;;;;;6.15;100.00;99120.28;4991073;28;20537;-66
2021/12/26 00:28:16;;;;;;;15.55;8.00;;;;;;;6.11;100.00;99110.72;4990725;28;20034;-66
2021/12/26 00:30:42;;;;;;;19.35;8.15;;;;;;;6.22;100.00;99120.97;4991704;28;20026;-66
2021/12/26 00:33:08;;;;;;;19.45;8.85;;;;;;;6.21;100.00;99122.75;4983731;28;20426;-66
2021/12/26 00:35:34;;;;;;;16.52;7.80;;;;;;;6.25;100.00;99118.22;4990858;28;20056;-66
2021/12/26 00:37:59;;;;;;;17.45;8.25;;;;;;;6.18;100.00;99120.19;4993398;28;20109;-66
2021/12/26 00:40:26;;;;;;;21.27;8.95;;;;;;;6.18;100.00;99106.13;4991037;28;20102;-66
2021/12/26 00:42:53;;;;;;;17.10;8.77;;;;;;;6.22;100.00;99119.22;4991188;28;20026;-66
2021/12/26 00:45:19;;;;;;;16.98;7.95;;;;;;;6.16;100.00;99131.72;4992769;28;20471;-66
2021/12/26 00:47:46;;;;;;;17.45;8.40;;;;;;;6.20;100.00;99128.06;4990075;28;20034;-66
2021/12/26 00:50:14;;;;;;;18.65;8.00;;;;;;;6.24;100.00;99125.28;4993745;28;20025;-66
2021/12/26 00:52:40;;;;;;;15.88;8.80;;;;;;;6.27;100.00;99116.41;4991381;28;20339;-67
2021/12/26 00:55:08;;;;;;;14.93;6.63;;;;;;;6.25;100.00;99129.66;4991095;28;20018;-67
2021/12/26 00:57:34;;;;;;;13.05;8.13;;;;;;;6.10;100.00;99118.69;4993389;28;20033;-67
2021/12/26 00:59:59;;;;;;;18.42;7.70;;;;;;;6.12;100.00;99127.44;5001523;28;20026;-67
2021/12/26 01:02:25;;;;;;;14.68;8.20;;;;;;;6.18;100.00;99121.97;5008375;28;20041;-67
2021/12/26 01:04:51;;;;;;;17.25;8.07;;;;;;;6.23;100.00;99120.06;4999273;28;20042;-67
2021/12/26 01:07:30;;;;;;;18.75;7.57;;;;;;;6.22;100.00;99123.63;4988971;28;20027;-67
2021/12/26 01:09:55;;;;;;;15.98;8.82;;;;;;;6.29;100.00;99115.44;4992985;28;20474;-67
2021/12/26 01:12:21;;;;;;;15.77;8.27;;;;;;;6.34;100.00;99117.97;4989329;28;20105;-67
2021/12/26 01:14:52;;;;;;;21.05;8.60;;;;;;;6.22;100.00;99115.69;5002147;28;20478;-67
2021/12/26 01:17:21;;;;;;;16.45;7.15;;;;;;;6.11;100.00;99115.16;5009727;28;20091;-67
2021/12/26 01:19:51;;;;;;;14.27;7.30;;;;;;;6.13;100.00;99111.53;5010337;28;20453;-67
2021/12/26 01:22:17;;;;;;;17.30;7.80;;;;;;;6.16;100.00;99118.53;5010575;28;20116;-66
2021/12/26 01:24:44;;;;;;;20.10;7.95;;;;;;;6.14;100.00;99115.06;4993266;28;20511;-66
2021/12/26 01:27:11;;;;;;;17.98;8.85;;;;;;;6.15;100.00;99127.34;4992314;28;20088;-66
2021/12/26 01:29:37;;;;;;;16.83;8.18;;;;;;;6.11;100.00;99133.63;4991043;28;20038;-66
2021/12/26 01:32:06;;;;;;;17.48;7.57;;;;;;;6.14;100.00;99128.25;4990690;28;20030;-66
2021/12/26 01:34:33;;;;;;;14.38;8.55;;;;;;;6.10;100.00;99123.97;4991170;28;20533;-66
2021/12/26 01:36:58;;;;;;;15.65;7.55;;;;;;;6.07;100.00;99124.06;4989014;28;20042;-66
2021/12/26 01:39:24;;;;;;;18.83;8.07;;;;;;;6.07;100.00;99124.94;4992171;28;20483;-66
2021/12/26 01:41:50;;;;;;;15.75;8.45;;;;;;;6.07;100.00;99124.94;4989388;28;20030;-66
2021/12/26 01:44:16;;;;;;;20.15;8.63;;;;;;;6.10;100.00;99129.25;4992485;28;20066;-66
2021/12/26 01:46:43;;;;;;;20.58;8.60;;;;;;;6.04;100.00;99113.59;4989334;28;20026;-66
2021/12/26 01:49:16;;;;;;;17.15;9.82;;;;;;;6.06;100.00;99128.47;4989762;28;20022;-66
2021/12/26 01:51:43;;;;;;;20.90;9.35;;;;;;;6.14;100.00;99125.63;4990042;28;20030;-66
2021/12/26 01:54:11;;;;;;;16.23;8.52;;;;;;;6.21;100.00;99128.00;4992717;28;20037;-66
2021/12/26 01:56:38;;;;;;;18.13;9.43;;;;;;;6.19;100.00;99135.16;4990726;28;20026;-66
2021/12/26 01:59:06;;;;;;;18.73;8.25;;;;;;;6.19;100.00;99134.28;4990162;28;20053;-66
2021/12/26 02:01:32;;;;;;;17.00;9.35;;;;;;;6.16;100.00;99144.94;4992320;28;20034;-66
2021/12/26 02:03:59;;;;;;;16.23;8.13;;;;;;;6.07;100.00;99124.06;5002648;28;20041;-66
2021/12/26 02:06:24;;;;;;;18.30;8.45;;;;;;;6.18;100.00;99143.06;5006451;28;20054;-67
2021/12/26 02:08:50;;;;;;;17.58;8.35;;;;;;;6.24;100.00;99135.84;4990582;28;20026;-67
2021/12/26 02:11:16;;;;;;;20.73;8.40;;;;;;;6.25;100.00;99145.50;4989718;28;20026;-67
2021/12/26 02:13:43;;;;;;;16.02;8.18;;;;;;;6.31;100.00;99141.84;4990124;28;20022;-67
2021/12/26 02:16:12;;;;;;;18.83;7.55;;;;;;;6.19;100.00;99142.19;4992448;28;20029;-67
2021/12/26 02:18:38;;;;;;;14.68;8.57;;;;;;;6.17;100.00;99142.22;4989779;28;20058;-67
2021/12/26 02:28:44;;;;;;;14.80;8.52;;;;;;;6.27;100.00;99148.97;4993629;28;20026;-67
2021/12/26 02:31:10;;;;;;;15.88;7.93;;;;;;;6.23;100.00;99138.53;4994214;28;20029;-67
2021/12/26 02:33:36;;;;;;;17.45;9.13;;;;;;;6.27;100.00;99146.34;4995690;28;20042;-67
2021/12/26 02:36:04;;;;;;;16.33;8.35;;;;;;;6.17;100.00;99142.22;4995178;28;20474;-67
2021/12/26 02:38:30;;;;;;;16.77;8.00;;;;;;;6.05;100.00;99153.13;4992860;28;20046;-67
2021/12/26 02:40:56;;;;;;;14.13;7.63;;;;;;;6.10;100.00;99150.34;4993149;28;20030;-67
2021/12/26 02:43:25;;;;;;;17.50;8.35;;;;;;;5.82;100.00;99138.81;4994666;28;20026;-67
2021/12/26 02:45:51;;;;;;;15.82;8.10;;;;;;;6.22;100.00;99142.09;5001020;28;20022;-67
2021/12/26 02:48:17;;;;;;;17.45;8.45;;;;;;;6.32;100.00;99146.19;4992360;28;20037;-67
2021/12/26 02:50:45;;;;;;;17.85;8.77;;;;;;;6.05;100.00;99141.69;4995417;28;20037;-67
2021/12/26 02:53:20;;;;;;;20.02;9.18;;;;;;;5.93;100.00;99142.06;4994871;28;20022;-67
2021/12/26 02:55:48;;;;;;;17.15;9.20;;;;;;;5.65;100.00;99138.41;5007060;28;20034;-67
2021/12/26 02:58:14;;;;;;;15.60;8.05;;;;;;;5.62;100.00;99143.78;4992577;28;20019;-67
2021/12/26 03:00:47;;;;;;;16.58;8.70;;;;;;;5.95;100.00;99145.50;4975209;28;20034;-67
2021/12/26 03:03:12;;;;;;;14.70;8.63;;;;;;;6.05;100.00;99149.63;4995897;28;20118;-67
2021/12/26 03:05:42;;;;;;;20.17;9.15;;;;;;;6.04;100.00;99142.63;4999412;28;20121;-67
2021/12/26 03:08:10;;;;;;;16.30;8.65;;;;;;;5.74;100.00;99151.34;4990044;28;20022;-67
2021/12/26 03:10:36;;;;;;;18.23;8.38;;;;;;;5.70;100.00;99136.53;4990481;28;20068;-67
2021/12/26 03:13:05;;;;;;;17.25;8.23;;;;;;;5.65;100.00;99139.25;4998248;28;20057;-67
2021/12/26 03:15:32;;;;;;;18.15;8.93;;;;;;;5.73;100.00;99144.34;4991144;28;20022;-67
2021/12/26 03:17:59;;;;;;;18.85;8.77;;;;;;;5.78;100.00;99143.34;4999656;28;20060;-67
2021/12/26 03:20:31;;;;;;;16.77;8.52;;;;;;;5.74;100.00;99140.78;5008469;28;20033;-67
2021/12/26 03:22:59;;;;;;;19.23;9.55;;;;;;;5.63;100.00;99140.22;5008261;28;20037;-67
2021/12/26 03:25:25;;;;;;;18.90;8.70;;;;;;;5.70;100.00;99141.81;4992314;28;20109;-67
2021/12/26 03:27:51;;;;;;;16.27;8.55;;;;;;;5.76;100.00;99146.91;4990806;28;20029;-67
2021/12/26 03:30:20;;;;;;;18.45;9.35;;;;;;;5.67;100.00;99145.38;4992282;28;20083;-67
2021/12/26 03:32:47;;;;;;;17.00;8.93;;;;;;;5.67;100.00;99144.53;4993214;28;20117;-67
2021/12/26 03:35:12;;;;;;;17.13;9.00;;;;;;;5.69;100.00;99147.97;4991242;28;20544;-67
2021/12/26 03:37:39;;;;;;;18.88;9.50;;;;;;;5.71;100.00;99152.31;4991483;28;20072;-67
2021/12/26 03:40:06;;;;;;;22.10;8.98;;;;;;;5.67;100.00;99145.38;4991499;28;20030;-67
2021/12/26 03:42:32;;;;;;;15.57;8.88;;;;;;;5.81;100.00;99147.63;4991210;28;20438;-67
2021/12/26 03:44:58;;;;;;;18.10;8.23;;;;;;;5.86;100.00;99151.06;4992933;28;20125;-67
2021/12/26 03:47:23;;;;;;;24.02;9.55;;;;;;;5.95;100.00;99150.78;4989247;28;20032;-67
2021/12/26 03:49:50;;;;;;;21.60;8.75;;;;;;;5.69;100.00;99140.94;5010221;28;20529;-67
2021/12/26 03:52:16;;;;;;;24.65;10.10;;;;;;;5.85;100.00;99149.34;5010881;28;20089;-68
2021/12/26 03:54:41;;;;;;;20.42;8.63;;;;;;;5.69;100.00;99129.50;5008059;28;20037;-67
2021/12/26 03:57:07;;;;;;;17.35;9.07;;;;;;;5.87;100.00;99147.50;5001136;28;20401;-68
2021/12/26 03:59:32;;;;;;;16.20;8.13;;;;;;;5.71;100.00;99146.16;4990907;28;20030;-67
2021/12/26 04:01:58;;;;;;;19.75;9.32;;;;;;;5.65;100.00;99143.69;4995102;28;20056;-67
2021/12/26 04:04:24;;;;;;;15.23;8.70;;;;;;;5.65;100.00;99147.19;4951614;28;1149091;-67
2021/12/26 04:06:50;;;;;;;18.40;8.90;;;;;;;5.66;100.00;99148.94;4998835;28;20089;-67
2021/12/26 04:09:16;;;;;;;19.00;10.43;;;;;;;5.65;100.00;99151.59;4992089;28;20038;-67
2021/12/26 04:11:44;;;;;;;22.25;9.20;;;;;;;5.70;100.00;99144.44;4991610;28;20041;-67
2021/12/26 04:14:13;;;;;;;19.23;8.20;;;;;;;5.73;100.00;99149.63;4991448;28;20333;-66
2021/12/26 04:16:39;;;;;;;17.63;8.25;;;;;;;5.74;100.00;99151.34;4993816;28;20034;-66
2021/12/26 04:19:05;;;;;;;20.52;8.98;;;;;;;5.83;100.00;99145.88;4991304;28;20449;-66
2021/12/26 04:21:30;;;;;;;20.92;9.82;;;;;;;5.83;100.00;99135.31;4991835;28;20139;-66
2021/12/26 04:23:56;;;;;;;20.10;9.20;;;;;;;5.76;100.00;99152.19;4992139;28;20105;-67
2021/12/26 04:26:22;;;;;;;21.08;8.88;;;;;;;5.73;100.00;99147.88;4993852;28;20065;-67
2021/12/26 04:28:47;;;;;;;18.98;9.40;;;;;;;5.70;100.00;99144.44;4998029;28;20034;-66
2021/12/26 04:31:13;;;;;;;20.88;9.57;;;;;;;5.77;100.00;99156.53;4990681;28;20545;-66
2021/12/26 04:33:39;;;;;;;20.40;9.82;;;;;;;5.73;100.00;99155.78;4991682;28;20041;-66
2021/12/26 04:36:05;;;;;;;19.25;9.20;;;;;;;5.70;100.00;99129.47;4994275;28;20033;-66
2021/12/26 04:38:31;;;;;;;17.00;8.57;;;;;;;5.93;100.00;99155.25;4990481;28;20117;-66
2021/12/26 04:40:56;;;;;;;21.15;9.57;;;;;;;5.92;100.00;99162.31;4990963;28;20538;-66
2021/12/26 04:43:23;;;;;;;17.25;9.02;;;;;;;5.92;100.00;99167.59;4999783;28;20037;-66
2021/12/26 04:45:49;;;;;;;20.85;9.45;;;;;;;5.91;100.00;99154.44;4989798;28;20034;-66
2021/12/26 04:48:15;;;;;;;16.95;7.90;;;;;;;5.93;100.00;99163.19;5003832;28;20036;-66
2021/12/26 04:50:41;;;;;;;20.05;9.25;;;;;;;6.37;100.00;99165.41;5005300;28;20032;-66
2021/12/26 04:53:07;;;;;;;19.52;9.35;;;;;;;6.23;100.00;99168.44;5008105;28;20028;-66
2021/12/26 04:55:32;;;;;;;16.88;8.77;;;;;;;6.17;100.00;99160.72;5004769;28;20018;-66
2021/12/26 04:57:58;;;;;;;18.75;10.07;;;;;;;6.06;100.00;99164.56;4989609;28;20045;-66
2021/12/26 05:00:27;;;;;;;15.85;8.05;;;;;;;6.33;100.00;99162.00;4990948;28;20026;-66
2021/12/26 05:02:53;;;;;;;20.95;9.80;;;;;;;6.09;100.00;99164.47;4991445;28;20367;-66
2021/12/26 05:05:20;;;;;;;19.92;9.30;;;;;;;6.12;100.00;99164.38;4992818;28;20068;-66
2021/12/26 05:07:46;;;;;;;21.95;10.07;;;;;;;6.43;100.00;99165.22;4995536;28;20454;-66
2021/12/26 05:10:14;;;;;;;21.83;9.43;;;;;;;6.33;100.00;99163.75;5003099;28;20033;-66
2021/12/26 05:12:40;;;;;;;25.80;9.52;;;;;;;6.46;100.00;99168.66;4992450;28;20018;-66
2021/12/26 05:15:07;;;;;;;18.40;9.63;;;;;;;6.45;100.00;99164.28;4994041;28;20033;-66
2021/12/26 05:17:33;;;;;;;19.50;9.60;;;;;;;6.27;100.00;99161.31;4990545;28;20469;-66
2021/12/26 05:19:58;;;;;;;22.30;9.93;;;;;;;6.36;100.00;99150.47;4990820;28;20050;-66
2021/12/26 05:22:24;;;;;;;20.90;10.35;;;;;;;6.50;100.00;99162.38;4992775;28;20091;-66
2021/12/26 05:24:49;;;;;;;21.20;9.55;;;;;;;6.51;100.00;99168.50;4991123;28;20478;-67
2021/12/26 05:27:15;;;;;;;20.48;9.45;;;;;;;6.57;100.00;99168.34;4989695;28;20520;-67
2021/12/26 05:29:41;;;;;;;19.88;9.20;;;;;;;6.47;100.00;99161.59;4990842;28;20029;-66
2021/12/26 05:32:07;;;;;;;18.42;9.68;;;;;;;6.47;100.00;99162.44;5010004;28;20025;-66
2021/12/26 05:34:33;;;;;;;20.52;10.05;;;;;;;6.45;100.00;99163.41;5005958;28;20135;-66
2021/12/26 05:36:58;;;;;;;22.30;9.73;;;;;;;6.47;100.00;99161.59;4992296;28;20045;-66
2021/12/26 05:39:24;;;;;;;18.67;9.40;;;;;;;6.48;100.00;99163.31;4990567;28;20465;-66
2021/12/26 05:41:49;;;;;;;20.15;9.23;;;;;;;6.47;100.00;99161.59;4991309;28;20033;-66
2021/12/26 05:44:15;;;;;;;16.25;7.72;;;;;;;6.36;100.00;99148.69;4989598;28;20046;-66
2021/12/26 05:46:41;;;;;;;19.25;8.85;;;;;;;6.40;100.00;99160.03;4992675;28;20394;-66
2021/12/26 05:49:06;;;;;;;16.52;8.27;;;;;;;6.35;100.00;99161.94;4989488;28;20018;-66
2021/12/26 05:51:32;;;;;;;18.63;9.15;;;;;;;6.18;100.00;99156.28;4992268;28;20041;-66
2021/12/26 05:53:58;;;;;;;17.88;9.45;;;;;;;5.94;100.00;99154.34;4993301;28;20037;-66
2021/12/26 05:56:23;;;;;;;17.13;8.50;;;;;;;5.88;100.00;99146.59;4998010;28;20049;-67
2021/12/26 05:58:48;;;;;;;18.65;9.40;;;;;;;5.91;100.00;99149.16;4988824;28;20035;-67
2021/12/26 06:01:14;;;;;;;15.77;8.45;;;;;;;6.00;100.00;99164.72;5000816;28;20030;-66
2021/12/26 06:03:40;;;;;;;20.85;9.30;;;;;;;6.05;100.00;99158.41;4998791;28;20021;-66
2021/12/26 06:06:05;;;;;;;17.52;9.35;;;;;;;6.37;100.00;99160.13;5003664;28;20047;-66
2021/12/26 06:08:31;;;;;;;18.92;9.38;;;;;;;6.42;100.00;99161.75;4989057;28;20109;-66
2021/12/26 06:10:56;;;;;;;19.63;9.15;;;;;;;6.46;100.00;99165.13;4989881;28;20030;-66
2021/12/26 06:13:21;;;;;;;18.15;9.07;;;;;;;6.54;100.00;99164.00;4990977;28;20032;-66
2021/12/26 06:15:47;;;;;;;20.52;9.15;;;;;;;6.45;100.00;99163.41;4989254;28;20034;-66
2021/12/26 06:18:12;;;;;;;19.50;9.27;;;;;;;6.20;100.00;99172.94;4991485;28;20065;-66
2021/12/26 06:20:38;;;;;;;19.52;9.75;;;;;;;6.41;100.00;99157.34;4990384;28;20049;-66
2021/12/26 06:23:04;;;;;;;24.40;10.57;;;;;;;6.53;100.00;99164.91;4988556;28;20030;-66
2021/12/26 06:25:29;;;;;;;20.75;9.48;;;;;;;6.53;100.00;99157.00;4992718;28;20046;-66
2021/12/26 06:27:55;;;;;;;21.45;10.13;;;;;;;6.49;100.00;99149.22;4989367;28;20514;-66
2021/12/26 06:30:21;;;;;;;21.60;11.27;;;;;;;6.56;100.00;99162.19;4991852;28;20405;-66
2021/12/26 06:32:46;;;;;;;18.20;8.93;;;;;;;6.59;100.00;99162.09;4989559;28;20033;-66
2021/12/26 06:35:12;;;;;;;19.30;9.65;;;;;;;6.61;100.00;99164.69;4988642;28;20434;-66
2021/12/26 06:37:38;;;;;;;17.80;9.13;;;;;;;6.64;100.00;99169.84;4991253;28;20027;-66
2021/12/26 06:40:08;;;;;;;19.35;9.70;;;;;;;6.62;100.00;99161.13;4989496;28;20034;-66
2021/12/26 06:42:40;;;;;;;22.05;9.60;;;;;;;6.58;100.00;99157.72;4998326;28;20429;-66
2021/12/26 06:45:06;;;;;;;18.60;8.93;;;;;;;6.58;100.00;99162.13;5000307;28;20030;-66
2021/12/26 06:47:31;;;;;;;22.77;10.13;;;;;;;6.58;100.00;99165.66;4998960;28;20224;-66
2021/12/26 06:49:57;;;;;;;26.40;10.23;;;;;;;6.43;100.00;99160.81;4989321;28;20121;-66
2021/12/26 06:52:22;;;;;;;23.08;9.80;;;;;;;6.37;100.00;99165.41;4972283;28;20524;-66
2021/12/26 06:54:48;;;;;;;24.25;10.63;;;;;;;6.33;100.00;99161.13;4997569;28;20018;-66
2021/12/26 06:57:13;;;;;;;22.30;9.38;;;;;;;6.43;100.00;99168.75;4989169;28;20028;-66
2021/12/26 06:59:39;;;;;;;19.65;9.15;;;;;;;6.39;100.00;99179.44;4987894;28;20025;-66
2021/12/26 07:02:04;;;;;;;26.77;12.20;;;;;;;6.41;100.00;99175.84;5005620;28;20056;-66
2021/12/26 07:04:30;;;;;;;29.30;11.13;;;;;;;6.47;100.00;99180.94;4995900;28;20065;-66
2021/12/26 07:06:55;;;;;;;26.02;12.75;;;;;;;6.47;100.00;99185.38;5008011;28;20040;-66
2021/12/26 07:09:21;;;;;;;33.50;14.45;;;;;;;6.45;100.00;99173.97;4996050;28;20018;-66
2021/12/26 07:11:46;;;;;;;24.00;11.35;;;;;;;6.51;100.00;99185.22;4992397;28;20478;-66
2021/12/26 07:14:13;;;;;;;25.65;10.40;;;;;;;6.49;100.00;99192.31;5000549;28;20101;-66
2021/12/26 07:16:38;;;;;;;18.95;9.00;;;;;;;6.48;100.00;99187.97;4995411;28;20026;-66
2021/12/26 07:19:04;;;;;;;24.30;10.30;;;;;;;6.44;100.00;99188.09;4991558;28;20033;-66
2021/12/26 07:21:29;;;;;;;28.20;10.15;;;;;;;6.48;100.00;99193.25;5002736;28;20018;-66
2021/12/26 07:23:54;;;;;;;22.00;8.77;;;;;;;6.46;100.00;99192.41;5012167;28;20029;-66
2021/12/26 07:26:20;;;;;;;21.33;10.15;;;;;;;6.53;100.00;99193.09;5003942;28;20034;-66
2021/12/26 07:28:45;;;;;;;22.83;10.20;;;;;;;6.50;100.00;99187.91;4992316;28;20030;-66
2021/12/26 07:31:11;;;;;;;24.80;9.38;;;;;;;6.49;100.00;99196.75;4991993;28;20061;-66
2021/12/26 07:33:37;;;;;;;18.42;8.68;;;;;;;6.36;100.00;99198.00;4995188;28;20478;-66
2021/12/26 07:36:03;;;;;;;20.58;9.85;;;;;;;6.19;100.00;99202.91;4991733;28;20529;-67
2021/12/26 07:38:29;;;;;;;21.17;9.77;;;;;;;6.11;100.00;99200.47;4986795;28;20036;-66
2021/12/26 07:40:54;;;;;;;25.38;10.63;;;;;;;6.06;100.00;99201.53;4992290;28;20023;-66
2021/12/26 07:43:20;;;;;;;23.23;9.07;;;;;;;6.04;100.00;99198.06;4992026;28;20030;-66
2021/12/26 07:45:45;;;;;;;24.48;10.68;;;;;;;6.06;100.00;99202.38;4975096;28;20034;-66
2021/12/26 07:48:11;;;;;;;29.58;10.95;;;;;;;6.41;100.00;99189.03;4994037;28;20026;-67
2021/12/26 07:50:36;;;;;;;20.00;9.65;;;;;;;6.51;100.00;99197.56;4990282;28;20049;-67
2021/12/26 07:53:07;;;;;;;24.00;9.15;;;;;;;6.60;100.00;99198.19;4993731;28;20097;-67
2021/12/26 07:55:33;;;;;;;29.52;11.23;;;;;;;6.52;100.00;99186.94;4992236;28;20037;-67
2021/12/26 07:57:58;;;;;;;24.73;10.27;;;;;;;6.55;100.00;99189.53;4989970;28;20363;-67
2021/12/26 08:00:24;;;;;;;27.98;10.65;;;;;;;6.66;100.00;99199.75;4994131;28;20368;-66
2021/12/26 08:02:49;;;;;;;22.17;9.52;;;;;;;6.66;100.00;99211.19;4987455;28;20038;-66
2021/12/26 08:05:16;;;;;;;24.20;9.38;;;;;;;6.54;100.00;99202.75;5003661;28;20126;-66
2021/12/26 08:07:42;;;;;;;23.48;12.10;;;;;;;6.64;100.00;99207.72;4991772;28;20081;-66
2021/12/26 08:10:08;;;;;;;25.80;11.45;;;;;;;6.58;100.00;99193.84;4991313;28;20031;-66
2021/12/26 08:12:33;;;;;;;23.70;10.15;;;;;;;6.62;100.00;99208.69;4992709;28;20023;-66
2021/12/26 08:15:01;;;;;;;21.20;10.20;;;;;;;6.55;100.00;99212.41;5002792;28;20478;-66
2021/12/26 08:17:27;;;;;;;22.38;9.73;;;;;;;6.54;100.00;99210.66;4974733;28;20041;-66
2021/12/26 08:19:52;;;;;;;22.65;10.38;;;;;;;6.62;100.00;99216.63;4990311;28;20041;-66
2021/12/26 08:22:18;;;;;;;23.88;9.25;;;;;;;6.63;100.00;99220.97;4992253;28;20027;-67
2021/12/26 08:24:43;;;;;;;24.30;10.43;;;;;;;6.64;100.00;99212.13;4993448;28;20033;-66
2021/12/26 08:27:09;;;;;;;21.05;9.95;;;;;;;6.59;100.00;99201.72;4998152;28;20417;-66
2021/12/26 08:29:34;;;;;;;24.98;9.68;;;;;;;6.63;100.00;99210.41;5011620;28;20164;-66
2021/12/26 08:32:01;;;;;;;20.75;9.52;;;;;;;6.66;100.00;99211.19;5011246;28;20026;-67
2021/12/26 08:34:27;;;;;;;21.48;9.30;;;;;;;6.60;100.00;99206.09;4999452;28;20025;-67
2021/12/26 08:37:02;;;;;;;26.30;10.68;;;;;;;6.68;100.00;99219.06;5010897;28;20386;-67
2021/12/26 08:39:31;;;;;;;18.88;8.57;;;;;;;6.75;100.00;99219.75;4991743;28;20026;-66
2021/12/26 08:41:57;;;;;;;25.00;9.23;;;;;;;6.81;100.00;99219.56;4995273;28;20038;-66
2021/12/26 08:44:23;;;;;;;26.88;9.95;;;;;;;6.85;100.00;99208.88;5011082;28;20105;-67
2021/12/26 08:46:48;;;;;;;26.80;11.52;;;;;;;6.89;100.00;99215.78;5010888;28;20504;-66
2021/12/26 08:49:14;;;;;;;26.83;11.65;;;;;;;6.90;100.00;99214.88;4998989;28;20018;-66
2021/12/26 08:51:40;;;;;;;29.45;10.57;;;;;;;6.87;100.00;99222.88;5010734;28;20474;-66
2021/12/26 08:54:06;;;;;;;36.78;14.52;;;;;;;6.88;100.00;99216.69;4987622;28;20401;-66
2021/12/26 08:56:32;;;;;;;47.30;20.60;;;;;;;6.91;100.00;99211.31;5008032;28;20026;-67
2021/12/26 08:58:57;;;;;;;39.35;17.27;;;;;;;6.86;100.00;99215.88;4993015;28;20057;-66
2021/12/26 09:01:22;;;;;;;42.95;14.95;;;;;;;6.85;100.00;99211.53;5002712;28;20036;-66
2021/12/26 09:03:48;;;;;;;32.47;15.43;;;;;;;6.89;100.00;99218.41;5010753;28;20068;-66
2021/12/26 09:06:13;;;;;;;26.27;11.38;;;;;;;6.94;100.00;99221.78;4991967;28;20042;-66
2021/12/26 09:08:39;;;;;;;29.38;13.07;;;;;;;6.83;100.00;99215.97;4990006;28;20061;-66
2021/12/26 09:11:04;;;;;;;21.67;10.07;;;;;;;6.79;100.00;99213.47;4993392;28;20053;-66
2021/12/26 09:13:30;;;;;;;29.92;11.93;;;;;;;6.80;100.00;99205.50;4990815;28;20479;-67
2021/12/26 09:15:56;;;;;;;22.95;11.00;;;;;;;6.84;100.00;99222.13;4990229;28;20023;-67
2021/12/26 09:18:21;;;;;;;20.58;10.43;;;;;;;6.91;100.00;99223.66;4992530;28;20453;-67
2021/12/26 09:20:47;;;;;;;22.02;9.45;;;;;;;6.88;100.00;99227.28;4990756;28;20474;-67
2021/12/26 09:23:12;;;;;;;20.08;9.77;;;;;;;6.99;100.00;99234.84;4994730;28;20060;-67
2021/12/26 09:25:38;;;;;;;27.52;9.98;;;;;;;6.91;100.00;99232.47;4989999;28;20026;-67
2021/12/26 09:28:03;;;;;;;30.73;12.70;;;;;;;6.98;100.00;99239.31;4988556;28;20118;-67
2021/12/26 09:30:30;;;;;;;66.80;26.38;;;;;;;6.95;100.00;99231.47;4992321;28;20038;-67
2021/12/26 09:32:55;;;;;;;70.63;30.38;;;;;;;7.02;100.00;99235.63;4989844;28;20379;-67
2021/12/26 09:35:21;;;;;;;29.88;12.90;;;;;;;7.07;100.00;99239.00;4992627;28;20060;-67
2021/12/26 09:37:47;;;;;;;21.02;10.18;;;;;;;7.06;100.00;99237.28;4989978;28;20445;-67
2021/12/26 09:40:15;;;;;;;24.42;11.40;;;;;;;7.15;100.00;99241.44;4971503;28;20033;-67
2021/12/26 09:42:42;;;;;;;24.15;8.75;;;;;;;7.16;100.00;99238.72;4994774;28;20117;-67
2021/12/26 09:45:09;;;;;;;17.67;8.98;;;;;;;7.23;100.00;99240.25;4989571;28;20026;-67
2021/12/26 09:47:36;;;;;;;25.73;9.63;;;;;;;7.23;100.00;99248.19;4998707;28;20104;-67
2021/12/26 09:50:03;;;;;;;25.15;9.93;;;;;;;7.32;100.00;99237.31;4990383;28;20030;-67
2021/12/26 09:52:29;;;;;;;23.92;11.20;;;;;;;7.35;100.00;99239.88;4989498;28;20536;-67
2021/12/26 09:54:54;;;;;;;24.98;9.13;;;;;;;7.37;100.00;99232.75;5004789;28;20068;-67
2021/12/26 09:57:20;;;;;;;19.15;8.93;;;;;;;7.40;100.00;99237.94;5008258;28;20044;-67
2021/12/26 09:59:48;;;;;;;21.98;10.32;;;;;;;7.40;100.00;99230.00;4999268;28;20034;-67
2021/12/26 10:02:15;;;;;;;21.90;9.80;;;;;;;7.40;100.00;99216.78;4989622;28;20430;-67
2021/12/26 10:04:43;;;;;;;21.73;9.13;;;;;;;7.37;100.00;99211.59;4973043;28;20148;-67
2021/12/26 10:07:12;;;;;;;23.25;9.27;;;;;;;7.42;100.00;99214.97;4978745;28;20050;-66
2021/12/26 10:09:47;;;;;;;22.65;9.80;;;;;;;7.43;100.00;99210.53;4990765;28;20049;-66
2021/12/26 10:12:14;;;;;;;22.60;10.05;;;;;;;7.39;100.00;99215.06;4993844;28;20034;-67
2021/12/26 10:14:43;;;;;;;23.80;9.48;;;;;;;7.47;100.00;99196.28;4989698;28;20030;-67
2021/12/26 10:17:14;;;;;;;23.52;10.55;;;;;;;7.50;100.00;99207.63;4991871;28;20034;-67
2021/12/26 10:19:49;;;;;;;24.08;9.55;;;;;;;7.53;100.00;99204.00;4990169;28;20498;-67
2021/12/26 10:22:21;;;;;;;27.92;9.75;;;;;;;7.40;100.00;99185.03;4989168;28;20030;-67
2021/12/26 10:24:49;;;;;;;21.73;10.20;;;;;;;7.46;100.00;99200.69;4993728;28;20026;-67
2021/12/26 10:27:19;;;;;;;25.83;10.32;;;;;;;7.39;100.00;99188.59;4991100;28;20026;-67
2021/12/26 10:29:47;;;;;;;20.63;9.52;;;;;;;7.42;100.00;99196.44;4992440;28;20434;-67
2021/12/26 10:32:21;;;;;;;26.75;10.43;;;;;;;7.43;100.00;99189.38;4989310;28;20471;-67
2021/12/26 10:34:50;;;;;;;17.98;9.50;;;;;;;7.41;100.00;99191.19;4989588;28;20038;-67
2021/12/26 10:37:19;;;;;;;27.67;10.93;;;;;;;7.35;100.00;99186.97;4989146;28;20030;-67
2021/12/26 10:39:47;;;;;;;23.98;10.85;;;;;;;7.42;100.00;99185.84;4998222;28;20030;-67
2021/12/26 10:42:16;;;;;;;29.05;13.50;;;;;;;7.32;100.00;99181.78;4988728;28;20501;-67
2021/12/26 10:44:53;;;;;;;24.83;11.00;;;;;;;7.33;100.00;99172.06;4995722;28;20039;-67
2021/12/26 10:47:30;;;;;;;28.45;11.93;;;;;;;7.40;100.00;99177.09;4993031;28;20026;-67
2021/12/26 10:49:56;;;;;;;22.30;11.25;;;;;;;7.47;100.00;99176.00;4995728;28;20105;-67
2021/12/26 10:52:29;;;;;;;21.08;10.32;;;;;;;7.45;100.00;99185.75;4992520;28;20096;-67
2021/12/26 10:55:00;;;;;;;27.33;11.37;;;;;;;7.42;100.00;99182.34;4994919;28;20018;-67
2021/12/26 10:57:35;;;;;;;32.75;14.05;;;;;;;7.46;100.00;99190.09;5009530;28;20026;-67
2021/12/26 11:00:30;;;;;;;29.77;11.18;;;;;;;7.50;100.00;99186.47;4985378;28;20073;-67
2021/12/26 11:03:01;;;;;;;26.60;12.90;;;;;;;7.50;100.00;99182.94;4995200;28;20061;-67
2021/12/26 11:05:43;;;;;;;28.90;11.48;;;;;;;7.52;100.00;99176.69;5013417;28;20049;-67
2021/12/26 11:08:11;;;;;;;29.70;11.38;;;;;;;7.49;100.00;99182.09;5005134;28;20030;-67
2021/12/26 11:10:37;;;;;;;25.73;10.65;;;;;;;7.55;100.00;99179.22;4993004;28;20466;-67
2021/12/26 11:13:07;;;;;;;27.85;11.30;;;;;;;7.65;100.00;99179.78;4992865;28;20092;-67
2021/12/26 11:15:36;;;;;;;28.27;11.85;;;;;;;7.64;100.00;99176.25;4994090;28;20054;-67
2021/12/26 11:18:09;;;;;;;28.65;12.07;;;;;;;7.72;100.00;99171.59;4995050;28;20038;-67
2021/12/26 11:20:47;;;;;;;21.33;9.57;;;;;;;7.73;100.00;99180.38;4992369;28;20030;-67
2021/12/26 11:23:19;;;;;;;21.23;10.27;;;;;;;7.69;100.00;99166.38;4996654;28;20508;-67
2021/12/26 11:25:45;;;;;;;33.67;11.90;;;;;;;7.70;100.00;99160.19;5003307;28;20025;-67
2021/12/26 11:28:13;;;;;;;26.05;11.95;;;;;;;7.70;100.00;99162.84;5011416;28;20022;-67